Home   Weather   Staplefield   Past weeks
Flag for United Kingdom

Past Weather in Staplefield, England, United Kingdom — Yesterday and Last 2 Weeks

Currently: 59 °F. Sunny. (Weather station: London / Gatwick Airport, United Kingdom). See more current weather

Past Weather in Staplefield — Graph

°F

Staplefield Temperature Yesterday

Maximum temperature yesterday: 59 °F (at 3:20 pm)
Minimum temperature yesterday: 37 °F (at 3:20 am)
Average temperature yesterday: 47 °F

High & Low Weather Summary for the Past Weeks

 TemperatureHumidityPressure
High68 °F (Sep 21, 1:50 pm)100% (Sep 19, 3:20 am)30.33 "Hg (Sep 19, 3:20 am)
Low37 °F (Sep 29, 3:20 am)39% (Sep 16, 4:20 pm)29.50 "Hg (Sep 27, 5:50 pm)
Average54 °F75%29.97 "Hg
* Reported Sep 15 10:50 am — Sep 30 10:20 am, Staplefield. Weather by CustomWeather, © 2022

Note: Actual official high and low records may vary slightly from our data, if they occured in-between our weather recording intervals... More about our weather records

Staplefield Weather History for the Previous 24 Hours

Scroll right to see more
 ConditionsComfort  
Time TempWeatherWind HumidityBarometerVisibility
10:20 am
Fri, Sep 30
57 °FSunny.9 mph72%29.80 "Hg10 mi
9:20 am52 °FPassing clouds.3 mph88%29.80 "HgN/A
8:50 am48 °FSunny.1 mph94%29.80 "Hg10 mi
8:20 am45 °FClear.1 mph100%29.80 "Hg6 mi
7:50 am41 °FFog.2 mph100%29.80 "Hg6 mi
7:20 am41 °FFog.1 mph100%29.83 "Hg5 mi
6:50 am41 °FFog.1 mph93%29.83 "Hg4 mi
6:20 am43 °FClear.1 mph93%29.83 "Hg10 mi
5:50 am43 °FClear.1 mph93%29.83 "Hg10 mi
5:20 am43 °FClear.2 mph93%29.83 "Hg10 mi
4:50 am43 °FClear.2 mph93%29.80 "Hg10 mi
4:20 am45 °FClear.1 mph93%29.80 "Hg10 mi
3:20 am45 °FClear.1 mph93%29.80 "Hg10 mi
2:20 am43 °FClear.1 mph100%29.80 "Hg10 mi
12:20 am43 °FClear.2 mph93%29.80 "Hg10 mi
11:20 pm
Thu, Sep 29
43 °FClear.2 mph93%29.80 "Hg10 mi
10:50 pm45 °FClear.1 mph93%29.80 "Hg10 mi
9:50 pm45 °FClear.2 mph93%29.80 "Hg10 mi
9:20 pm46 °FClear.2 mph87%29.80 "Hg10 mi
8:50 pm46 °FClear.1 mph87%29.77 "Hg10 mi
8:20 pm48 °FClear.1 mph82%29.77 "Hg10 mi
7:50 pm48 °FClear.1 mph82%29.74 "Hg10 mi
7:20 pm50 °FClear.2 mph76%29.74 "Hg10 mi
6:50 pm57 °FPassing clouds.5 mph55%29.74 "HgN/A
6:20 pm57 °FSunny.2 mph51%29.71 "Hg10 mi
5:50 pm59 °FPassing clouds.3 mph51%29.71 "HgN/A
5:20 pm57 °FPassing clouds.5 mph55%29.71 "HgN/A
4:20 pm59 °FPassing clouds.5 mph51%29.68 "HgN/A
3:20 pm59 °FPassing clouds.6 mph55%29.68 "HgN/A
2:20 pm57 °FScattered clouds.7 mph63%29.65 "HgN/A
1:50 pm57 °FScattered clouds.6 mph63%29.65 "HgN/A
1:20 pm57 °FScattered clouds.5 mph67%29.65 "HgN/A
12:50 pm57 °FScattered clouds.8 mph63%29.65 "HgN/A
12:20 pm57 °FScattered clouds.7 mph67%29.62 "HgN/A
11:50 am55 °FScattered clouds.7 mph72%29.62 "HgN/A
11:20 am55 °FScattered clouds.6 mph72%29.62 "HgN/A
Weather by CustomWeather, © 2022

See weather overview